デンパサール の空港の天気 - METARとTAF

デンパサール国際空港 ( WADD / DPS ) - インドネシア バリ島デンパサール
飛行場実況気象(Metar)
観測時間08/19 07:30 WITA (08/18 23:30 UTC)
風向・風速東 5m/s
視程8000m
天気現象
全天の8割程度の雲 雲底高度 490m
気温26℃
湿度84%
気圧1012hPa
METARWADD 182330Z 09010KT 8000 BKN016 26/23 Q1012 NOSIG
過去の天気等 Google飛行場航空写真 Wunderground天気予報

過去48時間のMETAR

飛行場予報(TAF)
発表時間: 8/19 07:00 WITA (8/18 23:00 UTC)
予報対象時間: 19日8時 WITA ~ 20日8時 WITA
風向・風速東南東 6m/s
視程10km以上
全天の4割程度の雲 雲底高度 490m
19日8時 WITA ~ 19日12時 WITA に一時的に
視程6000m
天気現象弱い雨
全天の8割程度の雲 雲底高度 460m
TAF WADD 182300Z 1900/2000 11012KT 9999 SCT016
TEMPO 1900/1904 6000 -RA BKN015